createdAt,value
2022-10-22T00:00:58.385Z,96.77
2022-10-22T00:03:24.921Z,98.47
2022-10-22T00:05:51.434Z,100.00
2022-10-22T00:08:17.846Z,100.00
2022-10-22T00:10:44.343Z,100.00
2022-10-22T00:13:11.244Z,100.00
2022-10-22T00:15:37.778Z,99.44
2022-10-22T00:18:04.274Z,99.67
2022-10-22T00:20:30.718Z,100.00
2022-10-22T00:22:57.245Z,100.00
2022-10-22T00:25:23.696Z,99.90
2022-10-22T00:27:50.160Z,99.69
2022-10-22T00:30:16.583Z,99.66
2022-10-22T00:32:43.270Z,99.43
2022-10-22T00:35:09.912Z,100.00
2022-10-22T00:37:36.417Z,100.00
2022-10-22T00:40:03.816Z,99.65
2022-10-22T00:42:30.491Z,100.00
2022-10-22T00:44:59.992Z,99.83
2022-10-22T00:47:28.509Z,99.71
2022-10-22T00:49:55.909Z,99.45
2022-10-22T00:52:22.609Z,99.66
2022-10-22T00:54:50.192Z,99.72
2022-10-22T00:57:17.854Z,98.58
2022-10-22T00:59:44.285Z,97.23
2022-10-22T01:02:10.694Z,98.43
2022-10-22T01:04:37.327Z,99.13
2022-10-22T01:07:04.063Z,99.39
2022-10-22T01:09:33.637Z,98.77
2022-10-22T01:12:14.955Z,98.73
2022-10-22T01:14:59.901Z,99.61
2022-10-22T01:17:45.111Z,99.51
2022-10-22T01:20:11.509Z,100.00
2022-10-22T01:22:44.367Z,100.00
2022-10-22T01:25:31.105Z,100.00
2022-10-22T01:27:57.509Z,99.92
2022-10-22T01:30:25.014Z,99.93
2022-10-22T01:32:54.077Z,99.65
2022-10-22T01:35:26.763Z,100.00
2022-10-22T01:37:55.677Z,100.00
2022-10-22T01:40:22.967Z,100.00
2022-10-22T01:43:02.932Z,99.86
2022-10-22T01:45:31.670Z,100.00
2022-10-22T01:48:14.693Z,100.00
2022-10-22T01:50:48.093Z,100.00
2022-10-22T01:53:20.217Z,100.00
2022-10-22T01:55:56.397Z,100.00
2022-10-22T01:58:31.004Z,100.00
2022-10-22T02:01:03.659Z,100.00
2022-10-22T02:03:37.049Z,100.00
2022-10-22T02:06:05.983Z,100.00
2022-10-22T02:08:33.665Z,100.00
2022-10-22T02:11:00.911Z,100.00
2022-10-22T02:13:47.639Z,100.00
2022-10-22T02:16:17.956Z,100.00
2022-10-22T02:18:46.605Z,100.00
2022-10-22T02:21:13.418Z,100.00
2022-10-22T02:23:39.925Z,100.00
2022-10-22T02:26:20.688Z,100.00
2022-10-22T02:29:10.189Z,100.00
2022-10-22T02:31:38.897Z,100.00
2022-10-22T02:34:10.142Z,99.07
2022-10-22T02:36:38.307Z,99.79
2022-10-22T02:39:05.787Z,99.89
2022-10-22T02:41:32.502Z,100.00
2022-10-22T02:43:58.922Z,100.00
2022-10-22T02:46:25.694Z,100.00
2022-10-22T02:48:52.148Z,100.00
2022-10-22T02:51:18.580Z,100.00
2022-10-22T02:53:45.290Z,100.00
2022-10-22T02:56:11.812Z,100.00
2022-10-22T02:58:38.286Z,100.00
2022-10-22T03:01:04.809Z,100.00
2022-10-22T03:03:31.260Z,100.00
2022-10-22T03:05:57.750Z,100.00
2022-10-22T03:08:24.178Z,100.00
2022-10-22T03:10:50.612Z,100.00
2022-10-22T03:13:17.055Z,100.00
2022-10-22T03:15:43.505Z,100.00
2022-10-22T03:18:10.069Z,100.00
2022-10-22T03:20:36.494Z,100.00
2022-10-22T03:23:03.373Z,100.00
2022-10-22T03:25:34.352Z,100.00
2022-10-22T03:28:02.954Z,100.00
2022-10-22T03:30:29.466Z,100.00
2022-10-22T03:32:55.905Z,100.00
2022-10-22T03:35:22.406Z,100.00
2022-10-22T03:37:48.985Z,100.00
2022-10-22T03:40:15.651Z,100.00
2022-10-22T03:42:42.674Z,100.00
2022-10-22T03:45:09.352Z,100.00
2022-10-22T03:47:37.423Z,100.00
2022-10-22T03:50:04.702Z,100.00
2022-10-22T03:52:35.302Z,100.00
2022-10-22T03:55:01.750Z,100.00
2022-10-22T03:57:28.472Z,100.00
2022-10-22T03:59:54.927Z,100.00
2022-10-22T04:02:21.668Z,100.00
2022-10-22T04:04:48.065Z,100.00
2022-10-22T04:07:14.498Z,100.00
2022-10-22T04:09:40.916Z,100.00
2022-10-22T04:12:08.374Z,100.00
2022-10-22T04:14:34.973Z,100.00
2022-10-22T04:17:01.557Z,100.00
2022-10-22T04:19:27.962Z,100.00
2022-10-22T04:21:54.369Z,100.00
2022-10-22T04:24:21.281Z,100.00
2022-10-22T04:26:47.770Z,100.00
2022-10-22T04:29:16.137Z,100.00
2022-10-22T04:31:43.174Z,100.00
2022-10-22T04:34:09.662Z,100.00
2022-10-22T04:36:36.185Z,100.00
2022-10-22T04:39:03.837Z,100.00
2022-10-22T04:41:31.790Z,100.00
2022-10-22T04:43:58.534Z,100.00
2022-10-22T04:46:25.924Z,100.00
2022-10-22T04:48:53.081Z,100.00
2022-10-22T04:51:20.392Z,100.00
2022-10-22T04:53:46.931Z,100.00
2022-10-22T04:56:20.711Z,100.00
2022-10-22T04:58:51.480Z,100.00
2022-10-22T05:01:19.306Z,100.00
2022-10-22T05:03:46.310Z,100.00
2022-10-22T05:08:44.709Z,100.00
2022-10-22T05:11:15.573Z,100.00
2022-10-22T05:13:42.047Z,100.00
2022-10-22T05:16:09.106Z,100.00
2022-10-22T05:18:36.606Z,100.00
2022-10-22T05:21:03.679Z,100.00
2022-10-22T05:23:30.086Z,100.00
2022-10-22T05:25:56.551Z,100.00
2022-10-22T05:28:23.055Z,100.00
2022-10-22T05:30:53.802Z,100.00
2022-10-22T05:33:24.057Z,100.00
2022-10-22T05:35:50.808Z,100.00
2022-10-22T05:38:17.449Z,100.00
2022-10-22T05:40:44.376Z,100.00
2022-10-22T05:43:10.853Z,100.00
2022-10-22T05:45:37.936Z,100.00
2022-10-22T05:48:04.549Z,100.00
2022-10-22T05:50:31.551Z,100.00
2022-10-22T05:52:58.007Z,100.00
2022-10-22T05:55:24.450Z,100.00
2022-10-22T05:57:50.893Z,100.00
2022-10-22T06:00:17.414Z,100.00
2022-10-22T06:02:43.859Z,100.00
2022-10-22T06:05:10.274Z,100.00
2022-10-22T06:07:36.732Z,100.00
2022-10-22T06:10:03.251Z,100.00
2022-10-22T06:12:29.669Z,100.00
2022-10-22T06:14:56.062Z,100.00
2022-10-22T06:17:22.544Z,100.00
2022-10-22T06:19:48.964Z,100.00
2022-10-22T06:22:15.401Z,100.00
2022-10-22T06:24:45.025Z,100.00
2022-10-22T06:27:11.796Z,100.00
2022-10-22T06:29:38.269Z,100.00
2022-10-22T06:32:04.818Z,100.00
2022-10-22T06:34:31.235Z,98.27
2022-10-22T06:36:57.715Z,98.07
2022-10-22T06:39:24.138Z,99.22
2022-10-22T06:41:50.571Z,100.00
2022-10-22T06:44:17.947Z,100.00
2022-10-22T06:46:44.787Z,100.00
2022-10-22T06:49:15.182Z,100.00
2022-10-22T06:51:42.102Z,100.00
2022-10-22T06:54:08.719Z,100.00
2022-10-22T06:56:35.143Z,100.00
2022-10-22T06:59:01.775Z,100.00
2022-10-22T07:01:29.807Z,100.00
2022-10-22T07:03:56.511Z,100.00
2022-10-22T07:06:23.683Z,100.00
2022-10-22T07:08:50.254Z,100.00
2022-10-22T07:11:18.525Z,99.07
2022-10-22T07:13:45.507Z,99.61
2022-10-22T07:16:12.353Z,99.91
2022-10-22T07:18:39.421Z,99.59
2022-10-22T07:21:06.766Z,100.00
2022-10-22T07:23:33.231Z,100.00
2022-10-22T07:25:59.685Z,100.00
2022-10-22T07:28:26.179Z,100.00
2022-10-22T07:30:52.702Z,100.00
2022-10-22T07:33:19.111Z,100.00
2022-10-22T07:35:45.787Z,100.00
2022-10-22T07:38:12.187Z,100.00
2022-10-22T07:40:38.667Z,100.00
2022-10-22T07:43:05.158Z,100.00
2022-10-22T07:45:31.765Z,99.46
2022-10-22T07:47:59.577Z,98.79
2022-10-22T07:50:26.731Z,97.79
2022-10-22T07:52:54.837Z,97.96
2022-10-22T07:55:23.821Z,98.85
2022-10-22T07:57:50.404Z,97.77
2022-10-22T08:00:19.418Z,98.54
2022-10-22T08:02:48.229Z,99.48
2022-10-22T08:05:14.688Z,99.28
2022-10-22T08:07:41.166Z,99.40
2022-10-22T08:10:08.029Z,99.17
2022-10-22T08:12:34.442Z,98.17
2022-10-22T08:15:00.944Z,98.48
2022-10-22T08:17:27.833Z,98.43
2022-10-22T08:19:54.293Z,99.65
2022-10-22T08:22:20.742Z,99.96
2022-10-22T08:24:47.159Z,100.00
2022-10-22T08:27:13.617Z,100.00
2022-10-22T08:29:40.121Z,100.00
2022-10-22T08:32:06.526Z,100.00
2022-10-22T08:34:32.938Z,100.00
2022-10-22T08:36:59.367Z,100.00
2022-10-22T08:39:26.041Z,100.00
2022-10-22T08:42:11.035Z,100.00
2022-10-22T08:44:46.334Z,100.00
2022-10-22T08:47:22.366Z,100.00
2022-10-22T08:49:49.537Z,100.00
2022-10-22T08:52:18.509Z,100.00
2022-10-22T08:54:51.601Z,100.00
2022-10-22T08:57:38.047Z,100.00
2022-10-22T09:00:04.536Z,100.00
2022-10-22T09:02:31.260Z,100.00
2022-10-22T09:05:06.696Z,99.85
2022-10-22T09:07:36.478Z,100.00
2022-10-22T09:10:03.354Z,100.00
2022-10-22T09:12:29.852Z,100.00
2022-10-22T09:14:56.348Z,100.00
2022-10-22T09:17:22.741Z,100.00
2022-10-22T09:19:56.826Z,100.00
2022-10-22T09:22:37.656Z,100.00
2022-10-22T09:25:19.809Z,100.00
2022-10-22T09:27:46.410Z,100.00
2022-10-22T09:30:17.806Z,100.00
2022-10-22T09:32:44.397Z,100.00
2022-10-22T09:35:11.684Z,100.00
2022-10-22T09:37:47.166Z,100.00
2022-10-22T09:40:14.928Z,100.00
2022-10-22T09:42:41.605Z,100.00
2022-10-22T09:45:15.777Z,100.00
2022-10-22T09:48:01.099Z,100.00
2022-10-22T09:50:31.102Z,100.00
2022-10-22T09:52:58.926Z,100.00
2022-10-22T09:55:25.712Z,100.00
2022-10-22T09:57:53.094Z,100.00
2022-10-22T10:00:20.369Z,100.00
2022-10-22T10:02:46.796Z,100.00
2022-10-22T10:05:20.900Z,100.00
2022-10-22T10:07:50.239Z,100.00
2022-10-22T10:10:27.080Z,100.00
2022-10-22T10:13:12.054Z,100.00
2022-10-22T10:15:43.974Z,100.00
2022-10-22T10:18:30.647Z,100.00
2022-10-22T10:21:03.604Z,100.00
2022-10-22T10:23:36.257Z,100.00
2022-10-22T10:26:08.530Z,100.00
2022-10-22T10:28:40.998Z,100.00
2022-10-22T10:31:22.713Z,100.00
2022-10-22T10:33:49.131Z,100.00
2022-10-22T10:36:23.873Z,100.00
2022-10-22T10:38:59.818Z,100.00
2022-10-22T10:41:33.290Z,100.00
2022-10-22T10:44:14.922Z,100.00
2022-10-22T10:46:59.873Z,100.00
2022-10-22T10:49:26.889Z,100.00
2022-10-22T10:51:57.995Z,99.98
2022-10-22T10:54:24.386Z,100.00
2022-10-22T10:56:54.301Z,100.00
2022-10-22T10:59:20.689Z,100.00
2022-10-22T11:01:56.174Z,100.00
2022-10-22T11:04:34.629Z,100.00
2022-10-22T11:07:11.017Z,100.00
2022-10-22T11:09:41.837Z,100.00
2022-10-22T11:12:23.514Z,100.00
2022-10-22T11:14:49.930Z,100.00
2022-10-22T11:17:18.015Z,100.00
2022-10-22T11:20:00.264Z,100.00
2022-10-22T11:22:40.137Z,100.00
2022-10-22T11:25:17.660Z,100.00
2022-10-22T11:28:03.179Z,100.00
2022-10-22T11:30:35.116Z,100.00
2022-10-22T11:33:07.043Z,100.00
2022-10-22T11:35:40.272Z,100.00
2022-10-22T11:38:07.622Z,100.00
2022-10-22T11:40:37.982Z,100.00
2022-10-22T11:43:05.934Z,100.00
2022-10-22T11:45:40.305Z,100.00
2022-10-22T11:48:07.262Z,100.00
2022-10-22T11:50:56.714Z,100.00
2022-10-22T11:53:26.210Z,100.00
2022-10-22T11:56:04.013Z,100.00
2022-10-22T11:58:44.910Z,100.00
2022-10-22T12:01:11.381Z,100.00
2022-10-22T12:03:43.796Z,100.00
2022-10-22T12:06:15.021Z,100.00
2022-10-22T12:08:54.385Z,100.00
2022-10-22T12:11:24.124Z,100.00
2022-10-22T12:14:09.328Z,100.00
2022-10-22T12:16:54.580Z,100.00
2022-10-22T12:19:22.412Z,100.00
2022-10-22T12:21:52.428Z,100.00
2022-10-22T12:24:20.311Z,100.00
2022-10-22T12:26:49.699Z,100.00
2022-10-22T12:29:16.515Z,100.00
2022-10-22T12:31:44.441Z,100.00
2022-10-22T12:34:13.477Z,100.00
2022-10-22T12:36:40.039Z,100.00
2022-10-22T12:39:12.627Z,100.00
2022-10-22T12:41:39.960Z,100.00
2022-10-22T12:44:06.739Z,100.00
2022-10-22T12:46:34.443Z,100.00
2022-10-22T12:49:02.146Z,100.00
2022-10-22T12:51:28.924Z,100.00
2022-10-22T12:54:00.866Z,100.00
2022-10-22T12:56:32.202Z,100.00
2022-10-22T12:59:02.959Z,100.00
2022-10-22T13:01:32.457Z,100.00
2022-10-22T13:04:16.879Z,100.00
2022-10-22T13:06:44.434Z,100.00
2022-10-22T13:09:14.261Z,100.00
2022-10-22T13:11:41.828Z,100.00
2022-10-22T13:14:22.218Z,100.00
2022-10-22T13:17:07.574Z,100.00
2022-10-22T13:19:54.259Z,100.00
2022-10-22T13:22:33.199Z,100.00
2022-10-22T13:25:04.316Z,100.00
2022-10-22T13:27:31.400Z,100.00
2022-10-22T13:30:00.393Z,100.00
2022-10-22T13:32:30.938Z,100.00
2022-10-22T13:35:06.634Z,100.00
2022-10-22T13:37:34.202Z,100.00
2022-10-22T13:40:00.686Z,100.00
2022-10-22T13:42:27.083Z,100.00
2022-10-22T13:44:53.552Z,100.00
2022-10-22T13:47:27.823Z,100.00
2022-10-22T13:52:34.013Z,100.00
2022-10-22T13:55:00.559Z,100.00
2022-10-22T13:57:26.996Z,100.00
2022-10-22T13:59:53.532Z,100.00
2022-10-22T14:02:20.178Z,100.00
2022-10-22T14:04:46.610Z,100.00
2022-10-22T14:07:16.882Z,100.00
2022-10-22T14:09:43.411Z,100.00
2022-10-22T14:12:15.354Z,100.00
2022-10-22T14:14:41.882Z,100.00
2022-10-22T14:17:17.676Z,100.00
2022-10-22T14:19:45.542Z,100.00
2022-10-22T14:22:16.204Z,100.00
2022-10-22T14:24:42.720Z,100.00
2022-10-22T14:27:13.375Z,100.00
2022-10-22T14:29:40.390Z,100.00
2022-10-22T14:32:12.067Z,100.00
2022-10-22T14:34:38.495Z,100.00
2022-10-22T14:37:04.923Z,100.00
2022-10-22T14:39:31.330Z,100.00
2022-10-22T14:41:57.734Z,100.00
2022-10-22T14:44:24.261Z,100.00
2022-10-22T14:46:54.239Z,100.00
2022-10-22T14:49:20.679Z,100.00
2022-10-22T14:51:47.437Z,100.00
2022-10-22T14:54:13.847Z,100.00
2022-10-22T14:56:40.258Z,100.00
2022-10-22T14:59:06.681Z,100.00
2022-10-22T15:01:33.201Z,100.00
2022-10-22T15:03:59.650Z,100.00
2022-10-22T15:06:26.146Z,100.00
2022-10-22T15:08:53.491Z,100.00
2022-10-22T15:11:20.016Z,100.00
2022-10-22T15:13:46.529Z,100.00
2022-10-22T15:16:14.638Z,100.00
2022-10-22T15:18:41.215Z,100.00
2022-10-22T15:21:13.183Z,100.00
2022-10-22T15:23:40.593Z,100.00
2022-10-22T15:26:07.738Z,100.00
2022-10-22T15:28:34.234Z,100.00
2022-10-22T15:31:00.821Z,100.00
2022-10-22T15:33:28.432Z,100.00
2022-10-22T15:35:55.567Z,100.00
2022-10-22T15:38:22.092Z,100.00
2022-10-22T15:40:48.730Z,100.00
2022-10-22T15:43:15.195Z,100.00
2022-10-22T15:45:41.667Z,100.00
2022-10-22T15:48:09.081Z,100.00
2022-10-22T15:50:39.369Z,100.00
2022-10-22T15:53:05.854Z,100.00
2022-10-22T15:55:32.378Z,100.00
2022-10-22T15:58:01.805Z,100.00
2022-10-22T16:00:30.053Z,100.00
2022-10-22T16:02:56.527Z,100.00
2022-10-22T16:05:23.026Z,100.00
2022-10-22T16:07:51.251Z,100.00
2022-10-22T16:10:17.724Z,100.00
2022-10-22T16:12:44.518Z,100.00
2022-10-22T16:15:11.157Z,100.00
2022-10-22T16:17:37.733Z,100.00
2022-10-22T16:20:04.344Z,100.00
2022-10-22T16:22:30.793Z,100.00
2022-10-22T16:24:57.267Z,100.00
2022-10-22T16:27:23.755Z,100.00
2022-10-22T16:29:50.193Z,100.00
2022-10-22T16:32:17.443Z,100.00
2022-10-22T16:34:43.873Z,100.00
2022-10-22T16:37:10.585Z,100.00
2022-10-22T16:39:37.453Z,100.00
2022-10-22T16:42:04.015Z,100.00
2022-10-22T16:44:30.478Z,100.00
2022-10-22T16:46:56.933Z,100.00
2022-10-22T16:49:23.386Z,100.00
2022-10-22T16:51:50.049Z,100.00
2022-10-22T16:54:16.508Z,100.00
2022-10-22T16:56:42.930Z,100.00
2022-10-22T16:59:09.433Z,100.00
2022-10-22T17:01:40.663Z,100.00
2022-10-22T17:04:07.605Z,100.00
2022-10-22T17:06:34.206Z,100.00
2022-10-22T17:09:00.741Z,100.00
2022-10-22T17:11:29.963Z,100.00
2022-10-22T17:13:56.479Z,100.00
2022-10-22T17:16:23.709Z,100.00
2022-10-22T17:18:50.298Z,100.00
2022-10-22T17:21:17.517Z,100.00
2022-10-22T17:23:44.526Z,100.00
2022-10-22T17:26:19.482Z,100.00
2022-10-22T17:28:46.014Z,100.00
2022-10-22T17:31:15.993Z,100.00
2022-10-22T17:33:42.778Z,100.00
2022-10-22T17:36:10.894Z,100.00
2022-10-22T17:38:38.756Z,100.00
2022-10-22T17:41:06.936Z,100.00
2022-10-22T17:43:37.572Z,100.00
2022-10-22T17:46:08.255Z,100.00
2022-10-22T17:48:34.894Z,100.00
2022-10-22T17:51:01.357Z,100.00
2022-10-22T17:53:27.829Z,100.00
2022-10-22T17:56:06.917Z,100.00
2022-10-22T17:58:33.337Z,100.00
2022-10-22T18:00:59.895Z,100.00
2022-10-22T18:03:27.823Z,100.00
2022-10-22T18:05:54.566Z,100.00
2022-10-22T18:08:21.108Z,100.00
2022-10-22T18:10:47.522Z,100.00
2022-10-22T18:13:13.938Z,100.00
2022-10-22T18:15:40.391Z,100.00
2022-10-22T18:18:06.845Z,100.00
2022-10-22T18:20:33.441Z,100.00
2022-10-22T18:22:59.842Z,100.00
2022-10-22T18:25:26.498Z,100.00
2022-10-22T18:27:52.983Z,100.00
2022-10-22T18:30:19.458Z,100.00
2022-10-22T18:32:45.932Z,100.00
2022-10-22T18:35:12.345Z,100.00
2022-10-22T18:37:39.980Z,100.00
2022-10-22T18:40:08.115Z,100.00
2022-10-22T18:42:37.769Z,100.00
2022-10-22T18:45:05.829Z,100.00
2022-10-22T18:47:32.278Z,100.00
2022-10-22T18:49:58.759Z,100.00
2022-10-22T18:52:25.258Z,100.00
2022-10-22T18:54:51.707Z,100.00
2022-10-22T18:57:18.133Z,100.00
2022-10-22T18:59:44.650Z,100.00
2022-10-22T19:02:11.075Z,100.00
2022-10-22T19:04:37.605Z,100.00
2022-10-22T19:07:04.755Z,100.00
2022-10-22T19:09:31.325Z,100.00
2022-10-22T19:11:57.730Z,100.00
2022-10-22T19:14:24.261Z,100.00
2022-10-22T19:16:50.810Z,100.00
2022-10-22T19:19:18.826Z,100.00
2022-10-22T19:21:45.909Z,100.00
2022-10-22T19:24:13.664Z,100.00
2022-10-22T19:26:40.275Z,100.00
2022-10-22T19:29:06.898Z,100.00
2022-10-22T19:31:33.423Z,100.00
2022-10-22T19:34:00.883Z,100.00
2022-10-22T19:36:28.690Z,100.00
2022-10-22T19:38:55.430Z,100.00
2022-10-22T19:41:22.731Z,100.00
2022-10-22T19:43:50.305Z,100.00
2022-10-22T19:46:17.239Z,100.00
2022-10-22T19:51:17.149Z,100.00
2022-10-22T19:53:43.701Z,100.00
2022-10-22T19:56:10.875Z,100.00
2022-10-22T19:58:37.820Z,100.00
2022-10-22T20:01:08.253Z,100.00
2022-10-22T20:03:36.250Z,100.00
2022-10-22T20:06:03.646Z,100.00
2022-10-22T20:08:31.118Z,100.00
2022-10-22T20:10:57.978Z,100.00
2022-10-22T20:13:24.426Z,100.00
2022-10-22T20:15:52.585Z,100.00
2022-10-22T20:18:19.695Z,100.00
2022-10-22T20:20:46.118Z,100.00
2022-10-22T20:23:12.578Z,100.00
2022-10-22T20:25:43.001Z,100.00
2022-10-22T20:28:09.577Z,100.00
2022-10-22T20:30:36.570Z,100.00
2022-10-22T20:33:03.007Z,100.00
2022-10-22T20:35:29.432Z,100.00
2022-10-22T20:37:55.830Z,100.00
2022-10-22T20:40:25.952Z,100.00
2022-10-22T20:42:52.826Z,100.00
2022-10-22T20:45:19.238Z,100.00
2022-10-22T20:47:51.750Z,100.00
2022-10-22T20:50:29.602Z,100.00
2022-10-22T20:52:56.093Z,100.00
2022-10-22T20:55:22.573Z,100.00
2022-10-22T20:57:49.087Z,100.00
2022-10-22T21:00:15.694Z,100.00
2022-10-22T21:02:42.170Z,100.00
2022-10-22T21:05:08.888Z,100.00
2022-10-22T21:07:35.327Z,100.00
2022-10-22T21:10:01.828Z,100.00
2022-10-22T21:12:28.237Z,100.00
2022-10-22T21:14:54.687Z,100.00
2022-10-22T21:17:21.167Z,100.00
2022-10-22T21:19:47.616Z,100.00
2022-10-22T21:22:14.013Z,100.00
2022-10-22T21:24:41.138Z,100.00
2022-10-22T21:27:07.651Z,100.00
2022-10-22T21:29:34.141Z,100.00
2022-10-22T21:32:00.561Z,100.00
2022-10-22T21:34:27.145Z,100.00
2022-10-22T21:36:53.648Z,100.00
2022-10-22T21:39:20.076Z,100.00
2022-10-22T21:41:46.469Z,100.00
2022-10-22T21:44:12.962Z,100.00
2022-10-22T21:46:39.374Z,100.00
2022-10-22T21:49:05.884Z,100.00
2022-10-22T21:51:33.577Z,100.00
2022-10-22T21:54:00.264Z,100.00
2022-10-22T21:56:28.191Z,100.00
2022-10-22T21:58:55.074Z,100.00
2022-10-22T22:01:21.762Z,100.00
2022-10-22T22:03:52.292Z,100.00
2022-10-22T22:06:21.440Z,100.00
2022-10-22T22:08:48.811Z,100.00
2022-10-22T22:11:16.763Z,100.00
2022-10-22T22:13:43.606Z,100.00
2022-10-22T22:16:11.746Z,100.00
2022-10-22T22:18:39.036Z,100.00
2022-10-22T22:21:06.712Z,100.00
2022-10-22T22:23:33.573Z,100.00
2022-10-22T22:26:00.742Z,100.00
2022-10-22T22:28:29.045Z,100.00
2022-10-22T22:30:55.671Z,100.00
2022-10-22T22:33:22.536Z,100.00
2022-10-22T22:35:48.997Z,100.00
2022-10-22T22:38:15.533Z,100.00
2022-10-22T22:40:42.065Z,100.00
2022-10-22T22:43:09.267Z,100.00
2022-10-22T22:45:35.795Z,100.00
2022-10-22T22:48:02.895Z,100.00
2022-10-22T22:50:29.378Z,100.00
2022-10-22T22:52:55.875Z,100.00
2022-10-22T22:55:23.001Z,100.00
2022-10-22T22:57:49.830Z,100.00
2022-10-22T23:00:16.486Z,100.00
2022-10-22T23:02:43.172Z,100.00
2022-10-22T23:05:09.798Z,100.00
2022-10-22T23:07:36.209Z,100.00
2022-10-22T23:10:02.694Z,100.00
2022-10-22T23:12:29.267Z,100.00
2022-10-22T23:14:55.702Z,100.00
2022-10-22T23:17:24.261Z,100.00
2022-10-22T23:19:51.251Z,100.00
2022-10-22T23:22:17.671Z,100.00
2022-10-22T23:24:44.086Z,100.00
2022-10-22T23:27:10.735Z,100.00
2022-10-22T23:29:37.233Z,100.00
2022-10-22T23:32:05.070Z,100.00
2022-10-22T23:34:32.040Z,100.00
2022-10-22T23:36:59.319Z,100.00
2022-10-22T23:39:27.176Z,100.00
2022-10-22T23:41:53.936Z,100.00
2022-10-22T23:44:21.113Z,100.00
2022-10-22T23:46:47.598Z,100.00
2022-10-22T23:49:14.485Z,100.00
2022-10-22T23:51:40.939Z,100.00
2022-10-22T23:54:08.651Z,100.00
2022-10-22T23:56:40.223Z,100.00
2022-10-22T23:59:08.078Z,100.00
